This is the latest recevied weather packets stored in our database for station/object N6GPM. If no packets are shown the sender has not sent any weather packets the latest 10 day(s).
| Time | Temp. | Humidity | Pressure | Rain* | Wind** | Luminosity | Snow |
|---|---|---|---|---|---|---|---|
| 1777848237 | 18.89° C | 67% | 1015.7 hPa | 0 mm | - | 701 W/m² | - |
| 1777847935 | 18.89° C | 67% | 1015.5 hPa | 0 mm | - | 278 W/m² | - |
| 1777847633 | 18.89° C | 68% | 1015.7 hPa | 0 mm | - | 281 W/m² | - |
| 1777847328 | 18.89° C | 66% | 1015.9 hPa | 0 mm | - | 426 W/m² | - |
| 1777847027 | 19.44° C | 67% | 1016 hPa | 0 mm | - | 269 W/m² | - |
| 1777846724 | 19.44° C | 66% | 1016.1 hPa | 0 mm | - | 182 W/m² | - |
| 1777846423 | 19.44° C | 65% | 1015.9 hPa | 0 mm | - | 150 W/m² | - |
| 1777846118 | 18.89° C | 66% | 1015.9 hPa | 0 mm | - | 239 W/m² | - |
| 1777845816 | 19.44° C | 66% | 1016 hPa | 0 mm | - | 248 W/m² | - |
| 1777845512 | 20° C | 64% | 1016.1 hPa | 0 mm | - | 252 W/m² | - |
| 1777845209 | 20° C | 63% | 1016.2 hPa | 0 mm | - | 810 W/m² | - |
| 1777844907 | 19.44° C | 64% | 1016.3 hPa | 0 mm | - | 790 W/m² | - |
| 1777844604 | 19.44° C | 64% | 1016.3 hPa | 0 mm | - | 240 W/m² | - |
| 1777844302 | 19.44° C | 66% | 1016.3 hPa | 0 mm | - | 393 W/m² | - |
| 1777843999 | 20.56° C | 63% | 1016.3 hPa | 0 mm | - | 295 W/m² | - |
| 1777843696 | 19.44° C | 67% | 1016.4 hPa | 0 mm | - | 319 W/m² | - |
| 1777843394 | 17.78° C | 69% | 1016.7 hPa | 0 mm | - | 340 W/m² | - |
| 1777843091 | 18.33° C | 69% | 1016.5 hPa | 0 mm | - | 262 W/m² | - |
| 1777842788 | 18.33° C | 71% | 1016.7 hPa | 0 mm | - | 740 W/m² | - |
| 1777842487 | 18.33° C | 71% | 1016.6 hPa | 0 mm | - | 368 W/m² | - |
| 1777842185 | 18.33° C | 72% | 1016.7 hPa | 0 mm | - | 784 W/m² | - |
| 1777841880 | 17.78° C | 74% | 1016.8 hPa | 0 mm | - | 746 W/m² | - |
| 1777841577 | 17.22° C | 74% | 1016.6 hPa | 0 mm | - | 691 W/m² | - |
| 1777841273 | 17.22° C | 76% | 1016.8 hPa | 0 mm | - | 714 W/m² | - |
| 1777840971 | 16.67° C | 77% | 1016.8 hPa | 0 mm | - | 446 W/m² | - |
* Rain latest hour (hover to see other rain measurements)
** Current wind speed in m/s (hover to see current wind gust speed)